Hiawassee, Florida
Current Conditions -  °F | °C
As of 8:53 PM on Tuesday 21 Oct 2014 (Local Time) from KORL Reporting Station
Clear Clear  
Wind Chill: 76°   Ceiling: Unl
Heat Index: 76°   Visibility: 10mi
Dew Point: 72°   Wind: 5mph
Humidity: 87%   Direction: 50°NE
Pressure: 29.94"   Gusts: NA
Location:  28.5867°N, 81.4891°W
Report Text: KORL 220053Z 05004KT 10SM CLR 24/22 A2994 RMK AO2 SLP142 T02440222
Loading
Personal Weather Stations






























Interactive Weather Map New forecast layout! Learn more

10-Day Weather Forecast

Advertisements
Track Severe Weather on mobile